createdAt,value
2022-08-21T00:01:56.927Z,100204.60
2022-08-21T00:04:29.534Z,100202.80
2022-08-21T00:06:59.589Z,100200.40
2022-08-21T00:09:27.581Z,100202.40
2022-08-21T00:11:55.322Z,100200.40
2022-08-21T00:14:23.053Z,100198.40
2022-08-21T00:16:50.872Z,100202.20
2022-08-21T00:19:18.594Z,100200.20
2022-08-21T00:21:46.453Z,100200.20
2022-08-21T00:24:14.130Z,100202.60
2022-08-21T00:26:41.875Z,100199.00
2022-08-21T00:29:09.569Z,100195.40
2022-08-21T00:31:38.041Z,100193.40
2022-08-21T00:34:08.881Z,100194.60
2022-08-21T00:36:37.147Z,100190.80
2022-08-21T00:39:07.465Z,100191.80
2022-08-21T00:41:38.944Z,100192.80
2022-08-21T00:44:09.358Z,100189.00
2022-08-21T00:46:37.908Z,100184.80
2022-08-21T00:49:07.226Z,100183.60
2022-08-21T00:51:44.691Z,100180.20
2022-08-21T00:54:18.281Z,100175.80
2022-08-21T00:57:06.572Z,100178.00
2022-08-21T00:59:37.255Z,100176.00
2022-08-21T01:02:08.352Z,100179.80
2022-08-21T01:04:36.229Z,100175.60
2022-08-21T01:07:04.278Z,100169.20
2022-08-21T01:09:32.164Z,100166.60
2022-08-21T01:12:00.585Z,100166.40
2022-08-21T01:14:29.569Z,100161.60
2022-08-21T01:16:57.630Z,100161.40
2022-08-21T01:19:26.520Z,100163.80
2022-08-21T01:21:54.825Z,100163.60
2022-08-21T01:24:23.046Z,100165.20
2022-08-21T01:26:51.961Z,100168.00
2022-08-21T01:29:34.853Z,100164.20
2022-08-21T01:32:09.723Z,100163.40
2022-08-21T01:34:39.467Z,100161.00
2022-08-21T01:37:07.323Z,100161.40
2022-08-21T01:39:36.737Z,100151.20
2022-08-21T01:42:05.467Z,100145.40
2022-08-21T01:44:33.590Z,100143.20
2022-08-21T01:47:05.474Z,100143.20
2022-08-21T01:49:33.284Z,100139.40
2022-08-21T01:52:01.005Z,100142.80
2022-08-21T01:54:28.797Z,100136.20
2022-08-21T01:56:56.758Z,100137.20
2022-08-21T01:59:25.160Z,100129.60
2022-08-21T02:01:55.195Z,100128.60
2022-08-21T02:04:23.454Z,100127.60
2022-08-21T02:06:51.761Z,100131.40
2022-08-21T02:09:20.129Z,100131.20
2022-08-21T02:11:48.607Z,100133.60
2022-08-21T02:14:27.109Z,100131.20
2022-08-21T02:17:05.346Z,100131.80
2022-08-21T02:19:40.822Z,100128.80
2022-08-21T02:22:12.233Z,100125.80
2022-08-21T02:24:54.571Z,100125.00
2022-08-21T02:27:27.473Z,100126.00
2022-08-21T02:29:57.864Z,100125.80
2022-08-21T02:32:26.857Z,100126.00
2022-08-21T02:34:54.983Z,100127.60
2022-08-21T02:37:22.713Z,100124.60
2022-08-21T02:39:50.845Z,100123.00
2022-08-21T02:42:18.948Z,100118.40
2022-08-21T02:44:46.665Z,100121.40
2022-08-21T02:47:15.162Z,100120.40
2022-08-21T02:49:45.767Z,100119.80
2022-08-21T02:52:13.522Z,100114.80
2022-08-21T02:54:41.361Z,100111.60
2022-08-21T02:57:09.288Z,100111.20
2022-08-21T02:59:37.204Z,100108.80
2022-08-21T03:02:05.136Z,100103.60
2022-08-21T03:04:33.035Z,100103.40
2022-08-21T03:07:01.461Z,100100.40
2022-08-21T03:09:29.261Z,100103.20
2022-08-21T03:11:56.919Z,100096.40
2022-08-21T03:14:24.633Z,100093.80
2022-08-21T03:16:52.443Z,100085.80
2022-08-21T03:19:21.725Z,100084.40
2022-08-21T03:21:49.413Z,100092.00
2022-08-21T03:24:18.089Z,100089.60
2022-08-21T03:26:49.093Z,100093.20
2022-08-21T03:29:17.704Z,100087.40
2022-08-21T03:31:45.394Z,100090.40
2022-08-21T03:34:13.320Z,100083.20
2022-08-21T03:36:41.031Z,100079.20
2022-08-21T03:39:08.770Z,100083.80
2022-08-21T03:41:36.494Z,100077.80
2022-08-21T03:44:04.410Z,100089.60
2022-08-21T03:46:32.672Z,100086.00
2022-08-21T03:49:00.393Z,100086.20
2022-08-21T03:51:28.065Z,100087.80
2022-08-21T03:53:55.731Z,100094.40
2022-08-21T03:56:23.441Z,100091.80
2022-08-21T03:58:51.134Z,100093.60
2022-08-21T04:01:19.006Z,100091.60
2022-08-21T04:03:46.795Z,100092.60
2022-08-21T04:06:14.515Z,100095.80
2022-08-21T04:08:43.949Z,100097.40
2022-08-21T04:11:11.601Z,100105.60
2022-08-21T04:13:44.336Z,100102.60
2022-08-21T04:16:13.646Z,100099.00
2022-08-21T04:18:41.627Z,100097.20
2022-08-21T04:21:11.331Z,100098.00
2022-08-21T04:23:39.350Z,100101.60
2022-08-21T04:26:07.700Z,100097.60
2022-08-21T04:28:35.455Z,100096.80
2022-08-21T04:31:03.316Z,100097.60
2022-08-21T04:33:31.031Z,100097.20
2022-08-21T04:35:58.726Z,100093.20
2022-08-21T04:38:27.261Z,100094.00
2022-08-21T04:41:05.306Z,100095.80
2022-08-21T04:43:33.471Z,100094.80
2022-08-21T04:46:01.537Z,100092.60
2022-08-21T04:48:29.378Z,100088.40
2022-08-21T04:51:05.850Z,100094.00
2022-08-21T04:53:56.743Z,100089.80
2022-08-21T04:56:32.261Z,100095.60
2022-08-21T04:59:04.526Z,100098.20
2022-08-21T05:01:35.712Z,100097.20
2022-08-21T05:04:05.456Z,100099.40
2022-08-21T05:06:35.951Z,100104.20
2022-08-21T05:09:04.196Z,100102.40
2022-08-21T05:11:32.471Z,100103.40
2022-08-21T05:14:00.347Z,100101.20
2022-08-21T05:16:36.514Z,100098.20
2022-08-21T05:19:07.007Z,100095.60
2022-08-21T05:21:36.166Z,100101.40
2022-08-21T05:24:04.177Z,100101.20
2022-08-21T05:26:32.020Z,100099.80
2022-08-21T05:29:00.122Z,100102.60
2022-08-21T05:31:28.000Z,100099.00
2022-08-21T05:33:56.456Z,100102.20
2022-08-21T05:36:25.065Z,100097.20
2022-08-21T05:38:52.819Z,100091.40
2022-08-21T05:41:20.507Z,100090.60
2022-08-21T05:43:48.413Z,100093.20
2022-08-21T05:46:16.301Z,100095.80
2022-08-21T05:48:44.039Z,100097.60
2022-08-21T05:51:14.812Z,100096.00
2022-08-21T05:53:43.223Z,100099.00
2022-08-21T05:56:12.194Z,100105.40
2022-08-21T05:58:39.874Z,100107.80
2022-08-21T06:01:09.430Z,100101.00
2022-08-21T06:03:39.636Z,100100.40
2022-08-21T06:06:07.564Z,100099.40
2022-08-21T06:08:35.610Z,100103.60
2022-08-21T06:11:04.764Z,100110.00
2022-08-21T06:13:33.041Z,100105.00
2022-08-21T06:16:03.635Z,100108.80
2022-08-21T06:18:31.622Z,100108.40
2022-08-21T06:20:59.297Z,100104.80
2022-08-21T06:23:31.747Z,100103.80
2022-08-21T06:26:02.768Z,100107.00
2022-08-21T06:28:31.217Z,100111.40
2022-08-21T06:30:58.960Z,100122.80
2022-08-21T06:33:31.953Z,100123.40
2022-08-21T06:36:01.025Z,100120.40
2022-08-21T06:38:28.739Z,100121.80
2022-08-21T06:40:56.662Z,100126.20
2022-08-21T06:43:39.395Z,100126.60
2022-08-21T06:46:08.906Z,100128.00
2022-08-21T06:48:36.818Z,100130.20
2022-08-21T06:51:05.602Z,100132.60
2022-08-21T06:53:34.266Z,100127.20
2022-08-21T06:56:02.158Z,100127.00
2022-08-21T06:58:31.262Z,100126.60
2022-08-21T07:01:01.245Z,100128.00
2022-08-21T07:03:31.485Z,100131.60
2022-08-21T07:05:59.385Z,100136.00
2022-08-21T07:08:28.330Z,100137.20
2022-08-21T07:10:57.998Z,100137.40
2022-08-21T07:13:26.228Z,100142.80
2022-08-21T07:15:53.968Z,100132.00
2022-08-21T07:18:22.012Z,100137.00
2022-08-21T07:20:49.850Z,100136.00
2022-08-21T07:23:25.719Z,100133.00
2022-08-21T07:25:53.398Z,100128.40
2022-08-21T07:28:21.854Z,100125.60
2022-08-21T07:30:54.619Z,100129.00
2022-08-21T07:33:22.652Z,100126.00
2022-08-21T07:35:50.328Z,100121.60
2022-08-21T07:38:19.565Z,100115.40
2022-08-21T07:40:48.134Z,100108.20
2022-08-21T07:43:17.834Z,100111.40
2022-08-21T07:45:46.306Z,100107.40
2022-08-21T07:48:14.036Z,100105.20
2022-08-21T07:50:42.003Z,100107.00
2022-08-21T07:53:10.013Z,100101.60
2022-08-21T07:55:37.745Z,100103.00
2022-08-21T07:58:05.531Z,100103.40
2022-08-21T08:00:33.937Z,100097.60
2022-08-21T08:03:02.086Z,100094.20
2022-08-21T08:05:31.556Z,100094.60
2022-08-21T08:07:59.694Z,100090.40
2022-08-21T08:10:28.234Z,100086.00
2022-08-21T08:12:56.540Z,100085.20
2022-08-21T08:15:26.652Z,100090.40
2022-08-21T08:17:55.863Z,100090.00
2022-08-21T08:20:26.169Z,100087.20
2022-08-21T08:22:55.245Z,100087.40
2022-08-21T08:25:24.002Z,100089.00
2022-08-21T08:27:51.878Z,100088.80
2022-08-21T08:30:20.818Z,100087.40
2022-08-21T08:32:48.843Z,100092.80
2022-08-21T08:35:16.851Z,100092.00
2022-08-21T08:37:47.929Z,100086.40
2022-08-21T08:40:52.913Z,100085.20
2022-08-21T08:43:21.063Z,100083.60
2022-08-21T08:45:51.988Z,100081.40
2022-08-21T08:48:51.091Z,100077.80
2022-08-21T08:51:38.478Z,100077.20
2022-08-21T08:54:10.635Z,100077.20
2022-08-21T08:56:38.347Z,100080.20
2022-08-21T08:59:14.941Z,100079.40
2022-08-21T09:01:43.682Z,100082.40
2022-08-21T09:04:13.595Z,100078.80
2022-08-21T09:07:17.003Z,100080.20
2022-08-21T09:10:04.485Z,100079.20
2022-08-21T09:12:42.368Z,100081.60
2022-08-21T09:15:28.835Z,100079.80
2022-08-21T09:18:08.413Z,100082.20
2022-08-21T09:21:07.138Z,100079.60
2022-08-21T09:23:55.770Z,100080.00
2022-08-21T09:26:51.147Z,100084.60
2022-08-21T09:29:23.124Z,100082.00
2022-08-21T09:31:50.948Z,100082.60
2022-08-21T09:34:27.229Z,100078.20
2022-08-21T09:36:55.017Z,100080.80
2022-08-21T09:39:40.142Z,100074.40
2022-08-21T09:42:10.568Z,100072.80
2022-08-21T09:44:44.122Z,100072.20
2022-08-21T09:47:13.811Z,100072.80
2022-08-21T09:49:43.542Z,100070.80
2022-08-21T09:52:23.240Z,100071.00
2022-08-21T09:54:54.718Z,100065.60
2022-08-21T09:57:44.665Z,100066.60
2022-08-21T10:00:31.782Z,100053.80
2022-08-21T10:03:11.165Z,100062.40
2022-08-21T10:05:40.811Z,100064.20
2022-08-21T10:08:18.439Z,100059.40
2022-08-21T10:10:46.370Z,100058.20
2022-08-21T10:13:21.398Z,100060.60
2022-08-21T10:16:08.388Z,100059.60
2022-08-21T10:18:52.162Z,100061.60
2022-08-21T10:21:39.121Z,100064.00
2022-08-21T10:24:31.487Z,100064.60
2022-08-21T10:27:11.991Z,100059.80
2022-08-21T10:30:00.733Z,100057.80
2022-08-21T10:33:07.360Z,100063.80
2022-08-21T10:35:42.801Z,100059.00
2022-08-21T10:38:55.238Z,100057.60
2022-08-21T10:42:00.446Z,100056.00
2022-08-21T10:44:40.170Z,100055.00
2022-08-21T10:47:35.238Z,100053.00
2022-08-21T10:50:15.165Z,100048.60
2022-08-21T10:52:51.961Z,100054.20
2022-08-21T10:55:27.924Z,100053.00
2022-08-21T10:57:57.810Z,100051.80
2022-08-21T11:00:52.461Z,100050.40
2022-08-21T11:03:33.105Z,100048.80
2022-08-21T11:06:21.462Z,100049.20
2022-08-21T11:09:00.676Z,100048.60
2022-08-21T11:11:49.877Z,100049.00
2022-08-21T11:14:50.761Z,100045.40
2022-08-21T11:17:23.536Z,100048.60
2022-08-21T11:20:07.131Z,100041.40
2022-08-21T11:22:38.316Z,100035.80
2022-08-21T11:25:12.209Z,100038.60
2022-08-21T11:27:43.306Z,100037.60
2022-08-21T11:30:12.221Z,100038.40
2022-08-21T11:33:05.918Z,100038.40
2022-08-21T11:35:40.032Z,100036.00
2022-08-21T11:38:33.466Z,100033.40
2022-08-21T11:41:16.991Z,100035.20
2022-08-21T11:43:52.770Z,100037.60
2022-08-21T11:46:30.314Z,100038.00
2022-08-21T11:49:22.188Z,100040.20
2022-08-21T11:52:11.460Z,100033.40
2022-08-21T11:54:46.804Z,100040.40
2022-08-21T11:57:17.392Z,100036.60
2022-08-21T11:59:58.720Z,100037.00
2022-08-21T12:02:32.706Z,100038.20
2022-08-21T12:05:09.294Z,100038.60
2022-08-21T12:07:43.429Z,100036.40
2022-08-21T12:10:17.678Z,100031.80
2022-08-21T12:12:45.768Z,100029.60
2022-08-21T12:15:18.130Z,100026.20
2022-08-21T12:18:29.318Z,100015.00
2022-08-21T12:21:34.427Z,100017.80
2022-08-21T12:24:14.441Z,100020.40
2022-08-21T12:26:59.174Z,100017.00
2022-08-21T12:29:28.057Z,100024.00
2022-08-21T12:32:11.446Z,100025.80
2022-08-21T12:34:47.232Z,100027.00
2022-08-21T12:37:14.872Z,100025.20
2022-08-21T12:39:45.635Z,100024.60
2022-08-21T12:42:23.486Z,100022.00
2022-08-21T12:45:00.710Z,100021.80
2022-08-21T12:47:34.564Z,100023.40
2022-08-21T12:50:13.742Z,100023.60
2022-08-21T12:52:45.407Z,100019.60
2022-08-21T12:55:16.700Z,100017.00
2022-08-21T12:57:44.482Z,100021.60
2022-08-21T13:00:14.330Z,100023.40
2022-08-21T13:02:48.569Z,100025.60
2022-08-21T13:05:36.829Z,100027.60
2022-08-21T13:08:06.544Z,100024.20
2022-08-21T13:10:35.652Z,100024.60
2022-08-21T13:13:25.636Z,100019.60
2022-08-21T13:16:19.764Z,100020.40
2022-08-21T13:19:06.454Z,100022.40
2022-08-21T13:21:39.481Z,100018.00
2022-08-21T13:24:39.156Z,100019.00
2022-08-21T13:27:04.370Z,100021.20
2022-08-21T13:29:35.855Z,100022.60
2022-08-21T13:32:07.995Z,100018.60
2022-08-21T13:34:37.994Z,100017.20
2022-08-21T13:37:08.052Z,100019.40
2022-08-21T13:39:36.102Z,100023.00
2022-08-21T13:42:12.199Z,100017.20
2022-08-21T13:44:45.772Z,100024.20
2022-08-21T13:47:15.842Z,100024.20
2022-08-21T13:49:47.116Z,100026.40
2022-08-21T13:52:23.690Z,100024.60
2022-08-21T13:55:08.932Z,100030.00
2022-08-21T13:57:40.019Z,100028.80
2022-08-21T14:00:49.726Z,100028.40
2022-08-21T14:03:39.072Z,100030.00
2022-08-21T14:06:18.870Z,100027.00
2022-08-21T14:09:09.396Z,100027.80
2022-08-21T14:11:37.972Z,100034.00
2022-08-21T14:14:17.750Z,100028.80
2022-08-21T14:16:58.015Z,100033.00
2022-08-21T14:19:29.156Z,100034.20
2022-08-21T14:21:56.835Z,100038.40
2022-08-21T14:24:24.442Z,100047.60
2022-08-21T14:27:02.225Z,100053.40
2022-08-21T14:29:36.184Z,100053.80
2022-08-21T14:32:21.434Z,100057.00
2022-08-21T14:34:54.822Z,100053.40
2022-08-21T14:37:24.177Z,100045.40
2022-08-21T14:39:52.039Z,100040.80
2022-08-21T14:42:20.372Z,100042.20
2022-08-21T14:44:48.327Z,100032.20
2022-08-21T14:47:16.130Z,100031.80
2022-08-21T14:49:43.961Z,100033.80
2022-08-21T14:52:13.103Z,100031.00
2022-08-21T14:54:40.862Z,100029.20
2022-08-21T14:57:10.774Z,100025.40
2022-08-21T14:59:39.274Z,100017.40
2022-08-21T15:02:08.974Z,100019.20
2022-08-21T15:04:36.850Z,100020.20
2022-08-21T15:07:05.277Z,100015.20
2022-08-21T15:09:33.012Z,100019.00
2022-08-21T15:12:02.160Z,100014.80
2022-08-21T15:14:33.291Z,100013.60
2022-08-21T15:17:02.210Z,100013.60
2022-08-21T15:19:30.736Z,100011.80
2022-08-21T15:21:58.716Z,100012.60
2022-08-21T15:24:26.918Z,100013.00
2022-08-21T15:26:56.023Z,100012.80
2022-08-21T15:29:32.600Z,100012.60
2022-08-21T15:32:17.361Z,100015.20
2022-08-21T15:34:45.120Z,100014.00
2022-08-21T15:37:12.842Z,100010.40
2022-08-21T15:39:41.511Z,100012.60
2022-08-21T15:42:11.480Z,100014.40
2022-08-21T15:44:43.418Z,100013.80
2022-08-21T15:47:15.195Z,100020.40
2022-08-21T15:49:45.995Z,100015.00
2022-08-21T15:52:19.487Z,100017.60
2022-08-21T15:54:47.788Z,100017.20
2022-08-21T15:57:18.037Z,100021.20
2022-08-21T15:59:48.742Z,100024.20
2022-08-21T16:02:24.271Z,100026.00
2022-08-21T16:04:51.932Z,100029.40
2022-08-21T16:07:19.734Z,100030.80
2022-08-21T16:09:47.546Z,100036.40
2022-08-21T16:12:22.337Z,100033.60
2022-08-21T16:14:50.901Z,100035.60
2022-08-21T16:17:18.998Z,100040.40
2022-08-21T16:19:47.261Z,100040.80
2022-08-21T16:22:15.031Z,100049.80
2022-08-21T16:24:42.757Z,100054.40
2022-08-21T16:27:10.728Z,100052.80
2022-08-21T16:29:39.467Z,100053.80
2022-08-21T16:32:07.962Z,100051.20
2022-08-21T16:34:36.307Z,100052.20
2022-08-21T16:37:04.425Z,100058.00
2022-08-21T16:39:32.595Z,100059.60
2022-08-21T16:42:00.314Z,100060.60
2022-08-21T16:44:30.226Z,100062.60
2022-08-21T16:46:58.878Z,100061.60
2022-08-21T16:49:26.907Z,100065.80
2022-08-21T16:51:54.559Z,100067.40
2022-08-21T16:54:22.243Z,100073.60
2022-08-21T16:56:50.598Z,100076.20
2022-08-21T16:59:21.961Z,100081.20
2022-08-21T17:01:50.344Z,100086.20
2022-08-21T17:04:18.057Z,100081.00
2022-08-21T17:06:45.967Z,100083.20
2022-08-21T17:09:13.724Z,100085.80
2022-08-21T17:11:43.242Z,100086.40
2022-08-21T17:14:13.524Z,100087.80
2022-08-21T17:16:47.649Z,100083.80
2022-08-21T17:19:15.839Z,100084.20
2022-08-21T17:21:43.803Z,100084.40
2022-08-21T17:24:15.442Z,100081.40
2022-08-21T17:26:44.657Z,100082.00
2022-08-21T17:29:14.621Z,100082.40
2022-08-21T17:31:43.098Z,100085.60
2022-08-21T17:34:11.588Z,100083.20
2022-08-21T17:36:39.409Z,100091.40
2022-08-21T17:39:07.449Z,100094.60
2022-08-21T17:41:35.266Z,100096.00
2022-08-21T17:44:11.697Z,100098.20
2022-08-21T17:46:41.960Z,100097.60
2022-08-21T17:49:09.862Z,100093.40
2022-08-21T17:51:37.751Z,100089.40
2022-08-21T17:54:05.662Z,100093.20
2022-08-21T17:56:36.364Z,100093.60
2022-08-21T17:59:05.835Z,100097.80
2022-08-21T18:01:38.640Z,100098.00
2022-08-21T18:04:06.402Z,100102.20
2022-08-21T18:06:34.250Z,100102.60
2022-08-21T18:09:02.325Z,100102.60
2022-08-21T18:11:30.789Z,100105.80
2022-08-21T18:14:07.126Z,100103.80
2022-08-21T18:16:37.760Z,100110.00
2022-08-21T18:19:09.917Z,100111.20
2022-08-21T18:21:37.859Z,100107.20
2022-08-21T18:24:05.978Z,100111.00
2022-08-21T18:26:38.688Z,100106.60
2022-08-21T18:29:10.532Z,100103.60
2022-08-21T18:31:39.551Z,100109.60
2022-08-21T18:34:23.714Z,100113.40
2022-08-21T18:36:52.180Z,100110.40
2022-08-21T18:39:37.530Z,100117.20
2022-08-21T18:42:10.236Z,100118.20
2022-08-21T18:44:39.175Z,100119.00
2022-08-21T18:47:12.249Z,100123.20
2022-08-21T18:49:41.610Z,100123.80
2022-08-21T18:52:09.942Z,100123.60
2022-08-21T18:54:39.937Z,100124.00
2022-08-21T18:57:10.746Z,100124.60
2022-08-21T18:59:38.889Z,100119.20
2022-08-21T19:02:08.695Z,100123.40
2022-08-21T19:04:44.403Z,100123.60
2022-08-21T19:07:16.310Z,100125.80
2022-08-21T19:09:52.989Z,100128.20
2022-08-21T19:12:32.607Z,100127.40
2022-08-21T19:15:01.286Z,100128.20
2022-08-21T19:17:30.858Z,100135.00
2022-08-21T19:20:03.367Z,100128.80
2022-08-21T19:22:31.699Z,100131.80
2022-08-21T19:24:59.518Z,100133.80
2022-08-21T19:27:27.582Z,100130.80
2022-08-21T19:29:55.321Z,100130.80
2022-08-21T19:32:23.973Z,100128.60
2022-08-21T19:34:52.060Z,100130.80
2022-08-21T19:37:20.555Z,100125.00
2022-08-21T19:42:36.425Z,100133.40
2022-08-21T19:45:06.027Z,100131.40
2022-08-21T19:47:35.058Z,100136.80
2022-08-21T19:50:18.029Z,100139.20
2022-08-21T19:52:57.129Z,100140.20
2022-08-21T19:55:25.648Z,100138.80
2022-08-21T19:57:54.698Z,100138.80
2022-08-21T20:00:23.986Z,100138.00
2022-08-21T20:02:51.962Z,100139.60
2022-08-21T20:05:19.858Z,100139.40
2022-08-21T20:07:48.992Z,100137.20
2022-08-21T20:10:18.760Z,100138.80
2022-08-21T20:12:48.097Z,100140.60
2022-08-21T20:15:19.366Z,100138.20
2022-08-21T20:17:50.671Z,100141.40
2022-08-21T20:20:18.636Z,100135.80
2022-08-21T20:22:46.344Z,100137.20
2022-08-21T20:25:14.079Z,100135.00
2022-08-21T20:27:41.874Z,100134.60
2022-08-21T20:30:10.735Z,100133.00
2022-08-21T20:32:38.751Z,100135.80
2022-08-21T20:35:12.349Z,100136.80
2022-08-21T20:37:41.443Z,100133.20
2022-08-21T20:40:12.022Z,100132.00
2022-08-21T20:42:44.899Z,100133.20
2022-08-21T20:45:37.016Z,100133.00
2022-08-21T20:48:28.095Z,100136.80
2022-08-21T20:51:09.198Z,100140.20
2022-08-21T20:54:04.803Z,100138.60
2022-08-21T20:56:55.930Z,100138.60
2022-08-21T20:59:34.547Z,100135.40
2022-08-21T21:02:14.413Z,100128.40
2022-08-21T21:05:18.190Z,100134.00
2022-08-21T21:08:07.099Z,100138.20
2022-08-21T21:10:37.539Z,100134.00
2022-08-21T21:13:19.032Z,100137.20
2022-08-21T21:15:48.900Z,100134.40
2022-08-21T21:18:26.624Z,100133.80
2022-08-21T21:21:03.097Z,100131.40
2022-08-21T21:23:41.760Z,100135.20
2022-08-21T21:26:29.291Z,100135.60
2022-08-21T21:28:59.614Z,100134.40
2022-08-21T21:31:28.542Z,100133.80
2022-08-21T21:33:56.735Z,100137.00
2022-08-21T21:36:27.085Z,100137.80
2022-08-21T21:39:01.162Z,100138.40
2022-08-21T21:41:35.096Z,100137.40
2022-08-21T21:44:05.501Z,100138.20
2022-08-21T21:46:48.231Z,100138.80
2022-08-21T21:49:49.501Z,100141.60
2022-08-21T21:52:39.073Z,100136.00
2022-08-21T21:55:25.012Z,100135.00
2022-08-21T22:01:18.724Z,100128.40
2022-08-21T22:04:04.911Z,100133.80
2022-08-21T22:06:44.324Z,100132.00
2022-08-21T22:09:38.642Z,100133.00
2022-08-21T22:12:21.384Z,100133.00
2022-08-21T22:14:49.241Z,100129.00
2022-08-21T22:17:32.251Z,100134.80
2022-08-21T22:20:25.766Z,100134.80
2022-08-21T22:22:55.080Z,100129.80
2022-08-21T22:25:30.458Z,100130.00
2022-08-21T22:28:04.621Z,100127.60
2022-08-21T22:30:45.217Z,100122.60
2022-08-21T22:33:22.940Z,100126.80
2022-08-21T22:35:53.209Z,100118.40
2022-08-21T22:38:30.634Z,100125.20
2022-08-21T22:41:20.350Z,100124.00
2022-08-21T22:43:59.878Z,100125.00
2022-08-21T22:46:35.000Z,100124.40
2022-08-21T22:49:25.203Z,100121.00
2022-08-21T22:51:57.903Z,100117.20
2022-08-21T22:54:35.039Z,100116.40
2022-08-21T22:57:06.621Z,100116.60
2022-08-21T23:00:00.555Z,100117.40
2022-08-21T23:02:43.477Z,100117.60
2022-08-21T23:05:20.425Z,100120.20
2022-08-21T23:07:49.775Z,100119.80
2022-08-21T23:10:41.586Z,100126.40
2022-08-21T23:13:13.237Z,100123.20
2022-08-21T23:16:01.776Z,100126.80
2022-08-21T23:18:53.946Z,100131.60
2022-08-21T23:21:57.745Z,100131.40
2022-08-21T23:28:03.969Z,100123.00
2022-08-21T23:30:52.716Z,100120.40
2022-08-21T23:34:00.007Z,100127.20
2022-08-21T23:36:55.505Z,100127.00
2022-08-21T23:39:51.596Z,100126.00
2022-08-21T23:42:31.786Z,100132.40
2022-08-21T23:45:05.262Z,100130.00
2022-08-21T23:48:12.523Z,100130.20
2022-08-21T23:51:08.383Z,100135.40
2022-08-21T23:53:50.588Z,100137.00
2022-08-21T23:56:55.245Z,100138.40
2022-08-21T23:59:34.018Z,100142.00
